Time;durP1;ratioP1;P1;durP2;ratioP2;P2;SDS_P1;SDS_P2;PMS_P1;PMS_P2;Temp;Humidity;BMP_temperature;BMP_pressure;BME280_temperature;BME280_humidity;BME280_pressure;Samples;Min_cycle;Max_cycle;Signal;HPM_P1;HPM_P2
2021/03/05 06:57:09;;;;;;;12.80;4.20;;;3.70;99.90;;;;;;4789946;23;20230;-71
2021/03/05 06:59:38;;;;;;;8.60;4.73;;;4.10;99.90;;;;;;4995040;28;20293;-75
2021/03/05 07:02:06;;;;;;;7.53;4.27;;;4.40;99.90;;;;;;4992111;28;20246;-75
2021/03/05 07:04:33;;;;;;;7.83;4.03;;;4.50;99.90;;;;;;4993537;28;20621;-71
2021/03/05 07:07:01;;;;;;;7.73;4.13;;;4.80;99.90;;;;;;4993739;28;20246;-72
2021/03/05 07:09:29;;;;;;;9.17;3.63;;;5.10;99.90;;;;;;4993653;28;20210;-70
2021/03/05 07:11:56;;;;;;;5.80;3.27;;;5.50;99.90;;;;;;4984883;28;20257;-68
2021/03/05 07:14:28;;;;;;;9.33;3.70;;;5.90;99.90;;;;;;4974660;28;20231;-71
2021/03/05 07:16:55;;;;;;;9.70;3.20;;;6.00;99.90;;;;;;4975332;28;20641;-69
2021/03/05 07:19:24;;;;;;;6.97;3.27;;;6.20;99.90;;;;;;4975240;28;20215;-73
2021/03/05 07:21:52;;;;;;;5.33;3.13;;;6.20;99.90;;;;;;4974999;28;20215;-69
2021/03/05 07:24:20;;;;;;;7.87;3.03;;;6.50;99.90;;;;;;4974453;28;20702;-69
2021/03/05 07:26:53;;;;;;;9.33;3.30;;;6.70;99.90;;;;;;4975102;28;20215;-69
2021/03/05 07:29:22;;;;;;;6.07;3.00;;;7.00;99.90;;;;;;4974721;28;20262;-69
2021/03/05 07:32:00;;;;;;;7.47;3.00;;;7.20;99.90;;;;;;4974830;28;20775;-68
2021/03/05 07:34:28;;;;;;;5.70;3.27;;;7.40;99.90;;;;;;4974453;28;20597;-69
2021/03/05 07:36:57;;;;;;;5.83;2.60;;;7.60;99.90;;;;;;4974836;28;20208;-70
2021/03/05 07:39:26;;;;;;;6.17;2.90;;;7.30;99.90;;;;;;4974961;28;20636;-69
2021/03/05 07:41:55;;;;;;;5.50;2.40;;;6.60;99.90;;;;;;4974636;28;20291;-70
2021/03/05 07:44:23;;;;;;;4.27;2.30;;;6.80;99.90;;;;;;4974629;28;20227;-71
2021/03/05 07:46:51;;;;;;;5.67;3.13;;;6.70;99.90;;;;;;4974827;28;20214;-70
2021/03/05 07:49:24;;;;;;;4.53;2.40;;;6.40;99.90;;;;;;4975008;28;20570;-76
2021/03/05 07:51:52;;;;;;;5.67;2.70;;;7.20;99.90;;;;;;4974450;28;20641;-71
2021/03/05 07:54:45;;;;;;;5.63;2.27;;;7.20;99.90;;;;;;4974685;28;20574;-69
2021/03/05 07:57:49;;;;;;;4.37;2.37;;;7.90;99.90;;;;;;4974636;28;20230;-77
2021/03/05 08:00:47;;;;;;;5.20;2.53;;;7.90;99.90;;;;;;4974442;28;20677;-69
2021/03/05 08:03:15;;;;;;;4.33;2.40;;;8.00;99.90;;;;;;4974166;28;20567;-71
2021/03/05 08:05:46;;;;;;;5.63;2.30;;;8.20;99.90;;;;;;4974531;28;20211;-69
2021/03/05 08:08:22;;;;;;;6.80;2.60;;;8.10;99.90;;;;;;4974347;28;20211;-69
2021/03/05 08:10:53;;;;;;;4.70;2.20;;;8.20;99.90;;;;;;4974220;28;20349;-70
2021/03/05 08:13:47;;;;;;;4.13;2.07;;;7.70;99.90;;;;;;4974260;28;20243;-71
2021/03/05 08:16:40;;;;;;;8.33;2.20;;;7.80;99.90;;;;;;4974536;28;20211;-69
2021/03/05 08:19:46;;;;;;;5.33;2.37;;;7.60;99.90;;;;;;4974136;28;20703;-70
2021/03/05 08:22:17;;;;;;;4.13;2.03;;;8.00;99.90;;;;;;4971540;28;20210;-69
2021/03/05 08:24:44;;;;;;;7.23;2.20;;;8.00;99.90;;;;;;4974209;28;20230;-70
2021/03/05 08:27:13;;;;;;;4.30;2.17;;;8.00;99.90;;;;;;4974308;28;20207;-70
2021/03/05 08:30:03;;;;;;;5.80;1.90;;;8.30;99.90;;;;;;4974160;28;20230;-71
2021/03/05 08:33:00;;;;;;;4.97;1.90;;;8.30;99.90;;;;;;4974248;28;20266;-70
2021/03/05 08:35:49;;;;;;;3.60;1.70;;;7.90;99.90;;;;;;4974080;28;20218;-69
2021/03/05 08:38:20;;;;;;;2.33;1.37;;;7.90;99.90;;;;;;4977784;28;20211;-69
2021/03/05 08:41:02;;;;;;;3.63;1.87;;;7.20;99.90;;;;;;4978257;28;20211;-69
2021/03/05 08:43:30;;;;;;;4.73;1.67;;;7.20;99.90;;;;;;4977724;28;20238;-70
2021/03/05 08:45:59;;;;;;;3.03;1.53;;;7.10;99.90;;;;;;4978013;28;20658;-73
2021/03/05 08:48:29;;;;;;;3.10;1.43;;;6.70;99.90;;;;;;4977949;28;20218;-69
2021/03/05 08:51:02;;;;;;;2.97;1.63;;;6.60;99.90;;;;;;4978010;28;20558;-69
2021/03/05 08:53:29;;;;;;;3.60;1.60;;;6.50;99.90;;;;;;4977704;28;20246;-69
2021/03/05 08:55:55;;;;;;;4.90;1.40;;;6.40;99.40;;;;;;4978079;28;20210;-70
2021/03/05 08:58:22;;;;;;;2.37;1.10;;;6.00;99.90;;;;;;4977647;28;20219;-69
2021/03/05 09:00:48;;;;;;;6.63;1.37;;;6.00;99.90;;;;;;4977944;28;20666;-70
2021/03/05 09:03:16;;;;;;;3.00;1.20;;;5.80;99.60;;;;;;4977412;28;20587;-70
2021/03/05 09:05:44;;;;;;;3.13;1.20;;;5.60;99.90;;;;;;4978101;28;20213;-70
2021/03/05 09:08:12;;;;;;;1.63;0.93;;;6.20;99.10;;;;;;4977514;28;20207;-73
2021/03/05 09:10:44;;;;;;;2.77;1.37;;;6.90;97.10;;;;;;4977510;28;20215;-71
2021/03/05 09:13:12;;;;;;;2.63;1.10;;;6.70;96.90;;;;;;4977306;28;20672;-70
2021/03/05 09:31:24;;;;;;;2.10;1.00;;;5.60;95.50;;;;;;5107132;27;21052;-69
2021/03/05 09:33:51;;;;;;;2.30;1.07;;;5.20;96.90;;;;;;5106792;28;20209;-74
2021/03/05 09:36:18;;;;;;;2.27;1.20;;;5.20;95.80;;;;;;5106872;28;20541;-75
2021/03/05 09:38:47;;;;;;;2.00;1.03;;;5.10;95.60;;;;;;5107109;28;20209;-71
2021/03/05 09:41:16;;;;;;;1.77;0.87;;;5.20;97.00;;;;;;5106971;28;20225;-76
2021/03/05 09:43:44;;;;;;;2.87;1.17;;;5.10;96.50;;;;;;5106982;28;20589;-74
2021/03/05 09:46:19;;;;;;;1.70;0.83;;;4.80;97.00;;;;;;5106803;28;20700;-75
2021/03/05 09:48:46;;;;;;;3.97;1.00;;;4.80;97.20;;;;;;5106563;28;20205;-76
2021/03/05 09:51:12;;;;;;;1.67;1.10;;;4.90;97.80;;;;;;5106898;28;20248;-75
2021/03/05 09:53:40;;;;;;;1.10;0.63;;;5.10;98.10;;;;;;5107251;28;20202;-73
2021/03/05 09:56:08;;;;;;;1.73;0.87;;;5.20;98.40;;;;;;5106970;28;20250;-75
2021/03/05 09:58:34;;;;;;;1.63;0.80;;;5.30;98.60;;;;;;5106606;28;20202;-76
2021/03/05 10:01:01;;;;;;;1.17;0.83;;;5.40;97.90;;;;;;5106967;28;20703;-69
2021/03/05 10:03:28;;;;;;;1.47;0.80;;;5.50;96.80;;;;;;5106902;27;20214;-73
2021/03/05 10:05:55;;;;;;;1.70;1.00;;;5.40;96.70;;;;;;5107173;27;20205;-71
2021/03/05 10:08:25;;;;;;;1.73;0.63;;;5.40;96.80;;;;;;5106629;27;20202;-72
2021/03/05 10:11:06;;;;;;;2.47;0.80;;;5.40;97.70;;;;;;5106235;28;20252;-75
2021/03/05 10:13:50;;;;;;;1.70;0.77;;;5.20;97.30;;;;;;5106266;27;20209;-75
2021/03/05 10:16:19;;;;;;;1.03;0.77;;;5.10;96.40;;;;;;5102120;28;20198;-71
2021/03/05 10:18:47;;;;;;;1.93;0.93;;;4.90;97.30;;;;;;5084503;28;20211;-70
2021/03/05 10:21:16;;;;;;;4.93;0.70;;;5.00;98.40;;;;;;5085124;28;20223;-79
2021/03/05 10:23:44;;;;;;;3.43;1.00;;;5.10;98.30;;;;;;5086556;28;20203;-75
2021/03/05 10:26:19;;;;;;;2.53;1.17;;;5.20;98.90;;;;;;5086556;28;20274;-70
2021/03/05 10:28:47;;;;;;;1.73;0.70;;;5.50;98.50;;;;;;5085991;28;20213;-71
2021/03/05 10:31:14;;;;;;;2.97;0.90;;;5.70;99.50;;;;;;5078164;28;20239;-69
2021/03/05 10:33:42;;;;;;;2.40;0.90;;;5.80;98.50;;;;;;5068971;28;20207;-71
2021/03/05 10:36:10;;;;;;;1.73;0.80;;;5.80;97.60;;;;;;5071463;28;20203;-69
2021/03/05 10:38:38;;;;;;;3.27;0.80;;;5.60;97.30;;;;;;5071099;28;20207;-77
2021/03/05 10:41:06;;;;;;;1.30;0.80;;;5.70;98.50;;;;;;5071021;28;20326;-68
2021/03/05 10:43:34;;;;;;;1.13;0.87;;;5.90;97.70;;;;;;5070731;28;20214;-72
2021/03/05 10:46:00;;;;;;;3.33;0.80;;;5.70;97.10;;;;;;5071112;28;20211;-67
2021/03/05 10:48:27;;;;;;;3.50;0.90;;;5.80;96.80;;;;;;5071286;28;20211;-72
2021/03/05 10:50:53;;;;;;;3.10;0.90;;;5.80;95.20;;;;;;5071181;28;20225;-68
2021/03/05 10:53:19;;;;;;;1.83;0.90;;;5.80;97.00;;;;;;5070960;28;20212;-70
2021/03/05 10:55:47;;;;;;;1.20;0.67;;;6.00;97.30;;;;;;5070676;28;20207;-77
2021/03/05 10:58:13;;;;;;;2.53;1.00;;;6.10;96.50;;;;;;5071298;28;20300;-71
2021/03/05 11:00:40;;;;;;;3.90;0.80;;;6.00;96.00;;;;;;5071883;28;20698;-71
2021/03/05 11:03:07;;;;;;;1.63;0.80;;;6.10;96.50;;;;;;5071772;28;20247;-71
2021/03/05 11:05:33;;;;;;;1.20;0.80;;;6.10;96.80;;;;;;5071900;28;20211;-71
2021/03/05 11:07:59;;;;;;;1.20;0.87;;;6.20;96.80;;;;;;5071869;28;20215;-71
2021/03/05 11:10:25;;;;;;;1.40;0.67;;;6.40;97.20;;;;;;5071627;28;20203;-71
2021/03/05 11:12:52;;;;;;;3.13;0.60;;;6.70;96.40;;;;;;5072028;28;20256;-71
2021/03/05 11:15:19;;;;;;;3.40;0.67;;;6.50;95.30;;;;;;5071887;28;20212;-71
2021/03/05 11:17:46;;;;;;;3.17;0.70;;;6.60;95.50;;;;;;5072154;28;20207;-71
2021/03/05 11:20:13;;;;;;;1.50;0.67;;;6.30;94.60;;;;;;5071583;28;20322;-71
2021/03/05 11:22:39;;;;;;;4.83;0.83;;;6.10;95.20;;;;;;5071666;28;20272;-71
2021/03/05 11:25:07;;;;;;;1.33;0.77;;;5.90;95.00;;;;;;5071492;28;20669;-72
2021/03/05 11:27:35;;;;;;;1.37;0.63;;;5.60;95.90;;;;;;5071647;28;20214;-72
2021/03/05 11:30:14;;;;;;;2.00;0.70;;;5.40;96.40;;;;;;5071443;28;20211;-72
2021/03/05 11:32:41;;;;;;;1.67;0.80;;;5.30;95.90;;;;;;5071423;28;20219;-72
2021/03/05 11:35:08;;;;;;;0.87;0.60;;;5.10;96.70;;;;;;5071782;28;20211;-72
2021/03/05 11:37:34;;;;;;;1.67;0.80;;;5.20;95.80;;;;;;5071562;28;20222;-72
2021/03/05 11:40:00;;;;;;;3.53;0.77;;;5.30;96.00;;;;;;5071102;28;20600;-72
2021/03/05 11:42:27;;;;;;;0.80;0.70;;;5.60;95.90;;;;;;5070472;28;20234;-72
2021/03/05 11:44:53;;;;;;;1.20;0.70;;;5.70;95.90;;;;;;5071841;28;20203;-72
2021/03/05 11:47:20;;;;;;;1.53;0.80;;;5.70;96.30;;;;;;5073838;28;20264;-72
2021/03/05 11:49:46;;;;;;;2.13;0.70;;;5.60;96.00;;;;;;5072076;28;20672;-72
2021/03/05 11:52:13;;;;;;;1.00;0.60;;;5.80;97.20;;;;;;5071126;28;20220;-72
2021/03/05 11:54:39;;;;;;;1.73;0.50;;;5.80;94.20;;;;;;5071272;28;20204;-72
2021/03/05 11:57:06;;;;;;;1.13;0.67;;;5.70;94.70;;;;;;5070768;28;20690;-72
2021/03/05 11:59:32;;;;;;;1.13;0.77;;;5.70;94.40;;;;;;5071075;28;20319;-72
2021/03/05 12:01:59;;;;;;;1.73;0.70;;;5.60;94.30;;;;;;5071015;28;20219;-72
2021/03/05 12:04:26;;;;;;;1.37;0.60;;;5.80;93.40;;;;;;5071978;28;20200;-72
2021/03/05 12:06:52;;;;;;;3.20;0.87;;;5.80;93.00;;;;;;5072826;28;20246;-73
2021/03/05 12:09:19;;;;;;;3.47;0.63;;;5.60;92.10;;;;;;5072218;28;20237;-72
2021/03/05 12:11:45;;;;;;;2.63;0.90;;;5.50;93.00;;;;;;5070816;28;20231;-72
2021/03/05 12:14:12;;;;;;;1.70;0.47;;;5.70;93.10;;;;;;5071349;28;20222;-73
2021/03/05 12:16:38;;;;;;;1.20;0.67;;;5.80;91.90;;;;;;5070644;28;20209;-72
2021/03/05 12:19:04;;;;;;;1.63;0.73;;;5.90;92.90;;;;;;5070657;28;20690;-72
2021/03/05 12:21:31;;;;;;;3.40;0.67;;;6.00;92.70;;;;;;5070725;28;20223;-72
2021/03/05 12:23:59;;;;;;;1.83;0.80;;;6.20;91.30;;;;;;5070916;28;20256;-72
2021/03/05 12:26:25;;;;;;;2.30;0.70;;;6.50;90.90;;;;;;5070588;28;20210;-72
2021/03/05 12:28:52;;;;;;;0.90;0.40;;;6.50;92.20;;;;;;5070402;28;20199;-72
2021/03/05 12:31:18;;;;;;;2.37;0.43;;;6.40;92.00;;;;;;5070288;28;20261;-72
2021/03/05 12:33:44;;;;;;;3.03;1.00;;;6.30;92.10;;;;;;5070617;28;20204;-72
2021/03/05 12:36:11;;;;;;;1.10;0.60;;;6.40;91.70;;;;;;5070854;28;20240;-72
2021/03/05 12:38:39;;;;;;;0.40;0.30;;;6.50;91.70;;;;;;5070383;28;20204;-71
2021/03/05 12:41:05;;;;;;;1.57;0.83;;;6.70;89.30;;;;;;5069848;28;20279;-73
2021/03/05 12:43:31;;;;;;;0.67;0.40;;;6.90;89.70;;;;;;5070159;28;20207;-72
2021/03/05 12:45:58;;;;;;;0.70;0.50;;;6.90;88.00;;;;;;5070528;28;20634;-72
2021/03/05 12:48:24;;;;;;;0.90;0.43;;;6.90;86.70;;;;;;5070351;28;20200;-72
2021/03/05 12:50:50;;;;;;;1.20;0.60;;;6.90;87.10;;;;;;5070274;28;20239;-72
2021/03/05 12:53:16;;;;;;;1.97;0.90;;;6.70;88.70;;;;;;5069965;28;20203;-72
2021/03/05 12:55:43;;;;;;;1.90;0.63;;;6.70;88.80;;;;;;5069944;28;20230;-71
2021/03/05 12:58:10;;;;;;;0.73;0.40;;;6.60;90.80;;;;;;5070475;28;20561;-72
2021/03/05 13:00:36;;;;;;;0.70;0.50;;;6.40;91.00;;;;;;5070120;28;20256;-72
2021/03/05 13:03:03;;;;;;;1.70;0.60;;;6.40;90.00;;;;;;5069925;28;20672;-73
2021/03/05 13:05:29;;;;;;;1.00;0.77;;;6.50;88.70;;;;;;5069906;28;20207;-73
2021/03/05 13:07:55;;;;;;;0.80;0.37;;;6.40;85.90;;;;;;5070240;28;20204;-72
2021/03/05 13:10:22;;;;;;;0.87;0.60;;;6.20;84.60;;;;;;5070069;28;20207;-72
2021/03/05 13:12:49;;;;;;;1.63;0.30;;;6.20;83.70;;;;;;5069855;27;20569;-72
2021/03/05 13:15:16;;;;;;;1.10;0.70;;;6.30;86.60;;;;;;5070219;28;20207;-72
2021/03/05 13:17:42;;;;;;;3.80;0.40;;;6.60;86.00;;;;;;5070048;28;20207;-72
2021/03/05 13:20:09;;;;;;;1.30;0.43;;;6.70;83.60;;;;;;5070010;28;20235;-72
2021/03/05 13:22:35;;;;;;;1.50;0.50;;;6.80;85.00;;;;;;5069846;28;20234;-72
2021/03/05 13:25:02;;;;;;;1.13;0.63;;;6.80;85.50;;;;;;5069457;28;20212;-72
2021/03/05 13:27:28;;;;;;;0.57;0.43;;;6.90;83.90;;;;;;5069497;28;20203;-72
2021/03/05 13:29:55;;;;;;;0.97;0.50;;;7.00;84.00;;;;;;5069584;27;20668;-72
2021/03/05 13:32:22;;;;;;;0.87;0.40;;;6.90;80.10;;;;;;5069728;28;20299;-72
2021/03/05 13:34:48;;;;;;;2.00;0.50;;;6.80;82.10;;;;;;5069728;28;20199;-72
2021/03/05 13:37:14;;;;;;;1.67;0.40;;;6.80;83.50;;;;;;5069803;28;20207;-72
2021/03/05 13:39:41;;;;;;;1.33;0.50;;;6.90;82.50;;;;;;5069586;28;20283;-72
2021/03/05 13:42:08;;;;;;;0.73;0.40;;;6.90;80.80;;;;;;5069229;28;20578;-72
2021/03/05 13:44:35;;;;;;;4.43;0.40;;;6.80;79.90;;;;;;5069740;28;20240;-72
2021/03/05 13:47:02;;;;;;;1.10;0.50;;;6.80;82.30;;;;;;5069234;28;20211;-72
2021/03/05 13:49:28;;;;;;;0.77;0.30;;;6.80;79.70;;;;;;5069422;28;20210;-72
2021/03/05 13:51:57;;;;;;;3.80;0.47;;;6.70;80.30;;;;;;5069416;28;20224;-72
2021/03/05 13:54:23;;;;;;;0.93;0.50;;;6.50;82.10;;;;;;5069338;28;20199;-72
2021/03/05 13:56:49;;;;;;;3.07;0.40;;;6.70;81.80;;;;;;5069441;28;20215;-72
2021/03/05 13:59:16;;;;;;;1.27;0.63;;;6.90;82.40;;;;;;5069369;28;20230;-71
2021/03/05 14:01:42;;;;;;;0.77;0.50;;;6.80;82.50;;;;;;5069237;28;20234;-72
2021/03/05 14:04:09;;;;;;;1.70;0.43;;;6.60;81.60;;;;;;5069556;28;20199;-72
2021/03/05 14:06:35;;;;;;;1.33;0.50;;;6.50;83.00;;;;;;5071013;28;20207;-72
2021/03/05 14:09:01;;;;;;;2.00;0.60;;;6.50;83.50;;;;;;5072940;28;20203;-72
2021/03/05 14:11:28;;;;;;;0.70;0.40;;;6.60;82.20;;;;;;5072841;28;20223;-72
2021/03/05 14:13:54;;;;;;;1.50;0.43;;;6.70;79.00;;;;;;5072799;28;20227;-72
2021/03/05 14:16:21;;;;;;;0.97;0.60;;;6.80;77.40;;;;;;5072741;28;20235;-72
2021/03/05 14:18:47;;;;;;;1.67;0.50;;;6.80;75.60;;;;;;5072803;28;20248;-72
2021/03/05 14:21:14;;;;;;;0.57;0.30;;;6.90;75.90;;;;;;5072546;28;20235;-72
2021/03/05 14:23:41;;;;;;;3.40;0.70;;;6.90;77.50;;;;;;5072633;28;20207;-72
2021/03/05 14:26:07;;;;;;;0.73;0.47;;;6.90;78.80;;;;;;5072426;28;20682;-72
2021/03/05 14:28:34;;;;;;;0.70;0.50;;;7.00;78.10;;;;;;5072483;28;20214;-72
2021/03/05 14:31:00;;;;;;;0.63;0.23;;;7.20;76.90;;;;;;5072326;28;20250;-72
2021/03/05 14:33:26;;;;;;;0.60;0.40;;;7.00;78.60;;;;;;5072403;28;20251;-72
2021/03/05 14:35:52;;;;;;;2.37;0.40;;;6.80;79.30;;;;;;5072485;28;20216;-72
2021/03/05 14:38:19;;;;;;;3.37;0.40;;;6.70;76.00;;;;;;5072149;28;20260;-72
2021/03/05 14:40:46;;;;;;;0.93;0.40;;;6.60;74.20;;;;;;5071953;28;20296;-72
2021/03/05 14:43:12;;;;;;;3.80;0.50;;;6.60;76.80;;;;;;5072546;28;20215;-72
2021/03/05 14:45:38;;;;;;;4.07;0.50;;;6.70;75.70;;;;;;5072235;28;20726;-72
2021/03/05 14:48:06;;;;;;;5.20;0.40;;;6.60;75.50;;;;;;5072307;28;20215;-72
2021/03/05 14:50:32;;;;;;;1.17;0.50;;;6.50;77.30;;;;;;5071998;28;20230;-72
2021/03/05 14:52:58;;;;;;;0.80;0.40;;;6.50;76.20;;;;;;5072020;28;20210;-72
2021/03/05 14:55:25;;;;;;;3.53;0.40;;;6.40;77.00;;;;;;5072206;28;20207;-72
2021/03/05 14:57:51;;;;;;;0.60;0.40;;;6.60;75.80;;;;;;5072195;28;20215;-72
2021/03/05 15:00:19;;;;;;;1.33;0.33;;;6.60;75.30;;;;;;5072299;28;20283;-72
2021/03/05 15:02:45;;;;;;;0.30;0.30;;;6.70;73.70;;;;;;5068674;28;20208;-69
2021/03/05 15:05:12;;;;;;;0.90;0.43;;;6.50;74.80;;;;;;5070730;28;20204;-71
2021/03/05 15:07:38;;;;;;;0.50;0.40;;;6.50;76.40;;;;;;5070772;28;20215;-72
2021/03/05 15:10:06;;;;;;;3.23;0.40;;;6.60;79.20;;;;;;5070579;28;20207;-70
2021/03/05 15:12:34;;;;;;;0.83;0.30;;;6.70;77.50;;;;;;5072008;28;20227;-73
2021/03/05 15:15:00;;;;;;;0.60;0.33;;;6.70;74.50;;;;;;5071804;28;20730;-70
2021/03/05 15:17:26;;;;;;;1.10;0.33;;;6.70;74.00;;;;;;5071610;28;20211;-70
2021/03/05 15:19:52;;;;;;;1.43;0.47;;;6.80;75.40;;;;;;5071584;28;20232;-71
2021/03/05 15:22:18;;;;;;;3.47;0.47;;;6.90;75.30;;;;;;5072223;28;20239;-74
2021/03/05 15:24:45;;;;;;;2.23;0.50;;;7.00;75.50;;;;;;5071505;28;20717;-75
2021/03/05 15:27:11;;;;;;;2.30;0.70;;;7.00;75.20;;;;;;5071272;28;20210;-70
2021/03/05 15:29:38;;;;;;;1.70;0.40;;;6.90;75.60;;;;;;5071627;28;20215;-69
2021/03/05 15:32:05;;;;;;;0.80;0.33;;;6.70;77.00;;;;;;5071361;28;20231;-69
2021/03/05 15:34:31;;;;;;;1.80;0.70;;;6.60;77.10;;;;;;5071495;28;20208;-73
2021/03/05 15:36:57;;;;;;;0.73;0.30;;;6.70;76.70;;;;;;5071792;28;20291;-74
2021/03/05 15:39:23;;;;;;;2.50;0.40;;;6.70;77.40;;;;;;5071370;28;20261;-72
2021/03/05 15:41:50;;;;;;;0.40;0.20;;;6.50;75.80;;;;;;5071408;28;20590;-70
2021/03/05 15:44:16;;;;;;;4.47;0.50;;;6.50;75.80;;;;;;5071376;28;20204;-72
2021/03/05 15:46:43;;;;;;;0.30;0.27;;;6.60;76.70;;;;;;5071327;28;20211;-70
2021/03/05 15:49:09;;;;;;;0.87;0.40;;;6.60;78.00;;;;;;5071532;28;20213;-69
2021/03/05 15:51:36;;;;;;;0.80;0.30;;;6.60;75.30;;;;;;5071235;28;20224;-69
2021/03/05 15:54:02;;;;;;;1.00;0.30;;;6.60;74.30;;;;;;5071170;28;20221;-69
2021/03/05 15:56:28;;;;;;;0.93;0.47;;;6.50;73.40;;;;;;5071169;28;20215;-71
2021/03/05 15:58:54;;;;;;;1.70;0.40;;;6.40;73.70;;;;;;5070937;28;20211;-70
2021/03/05 16:01:20;;;;;;;1.07;0.30;;;6.50;73.80;;;;;;5071014;28;20239;-71
2021/03/05 16:03:49;;;;;;;0.50;0.30;;;6.50;73.80;;;;;;5070973;28;20211;-74
2021/03/05 16:06:15;;;;;;;1.37;0.40;;;6.50;72.80;;;;;;5070942;28;20203;-73
2021/03/05 16:08:41;;;;;;;0.80;0.43;;;6.60;74.30;;;;;;5071080;28;20203;-73
2021/03/05 16:11:08;;;;;;;0.50;0.20;;;6.60;74.90;;;;;;5070776;28;20223;-70
2021/03/05 16:13:35;;;;;;;2.70;0.30;;;6.50;74.90;;;;;;5070961;28;20204;-70
2021/03/05 16:16:03;;;;;;;0.93;0.50;;;6.50;75.20;;;;;;5070932;28;20263;-71
2021/03/05 16:18:30;;;;;;;0.63;0.30;;;6.60;74.60;;;;;;5071083;28;20251;-73
2021/03/05 16:20:57;;;;;;;1.23;0.23;;;6.60;75.10;;;;;;5070271;28;20250;-71
2021/03/05 16:23:23;;;;;;;1.43;0.40;;;6.60;75.40;;;;;;5070598;28;20203;-74
2021/03/05 16:25:50;;;;;;;1.30;0.40;;;6.70;76.00;;;;;;5070587;28;20203;-74
2021/03/05 16:28:16;;;;;;;0.90;0.33;;;6.50;77.90;;;;;;5070209;28;20232;-70
2021/03/05 16:30:42;;;;;;;0.87;0.30;;;6.20;75.10;;;;;;5070045;28;20292;-70
2021/03/05 16:33:09;;;;;;;0.50;0.30;;;6.10;76.30;;;;;;5070553;28;20726;-70
2021/03/05 16:35:38;;;;;;;0.80;0.50;;;6.20;76.60;;;;;;5070524;28;20596;-70
2021/03/05 16:38:06;;;;;;;0.70;0.40;;;6.30;76.60;;;;;;5070538;28;20208;-75
2021/03/05 16:40:32;;;;;;;0.87;0.40;;;6.40;76.40;;;;;;5070210;28;20223;-74
2021/03/05 16:42:58;;;;;;;1.03;0.50;;;6.30;77.90;;;;;;5070355;28;20203;-76
2021/03/05 16:45:25;;;;;;;1.07;0.53;;;6.10;78.10;;;;;;5070224;28;20207;-75
2021/03/05 16:47:51;;;;;;;0.60;0.40;;;6.20;77.60;;;;;;5070416;28;20204;-75
2021/03/05 16:50:18;;;;;;;2.40;0.53;;;6.30;77.50;;;;;;5070497;28;20207;-75
2021/03/05 16:52:44;;;;;;;2.30;0.40;;;6.30;76.30;;;;;;5070527;27;20203;-75
2021/03/05 16:55:12;;;;;;;0.97;0.40;;;6.20;76.00;;;;;;5070092;28;20208;-76
2021/03/05 16:57:38;;;;;;;0.90;0.30;;;6.20;77.30;;;;;;5070229;28;20212;-75
2021/03/05 17:00:07;;;;;;;3.80;1.00;;;6.10;78.00;;;;;;5070397;28;20234;-75
2021/03/05 17:02:33;;;;;;;0.60;0.40;;;6.00;79.60;;;;;;5070449;28;20238;-74
2021/03/05 17:04:59;;;;;;;0.97;0.40;;;5.90;79.30;;;;;;5070180;27;20677;-75
2021/03/05 17:07:26;;;;;;;0.70;0.40;;;6.00;79.30;;;;;;5070065;28;20199;-75
2021/03/05 17:09:52;;;;;;;4.17;1.00;;;6.10;78.90;;;;;;5069916;28;20225;-74
2021/03/05 17:12:19;;;;;;;1.23;0.40;;;6.00;80.00;;;;;;5069878;28;20227;-74
2021/03/05 17:14:45;;;;;;;1.00;0.60;;;5.90;80.30;;;;;;5070015;28;20219;-75
2021/03/05 17:17:11;;;;;;;1.40;0.47;;;5.70;81.10;;;;;;5070128;28;20203;-76
2021/03/05 17:19:38;;;;;;;1.97;0.60;;;5.70;81.30;;;;;;5069926;28;20231;-75
2021/03/05 17:22:04;;;;;;;1.30;0.50;;;5.80;81.20;;;;;;5069858;28;20238;-75
2021/03/05 17:24:31;;;;;;;0.70;0.40;;;5.90;81.10;;;;;;5069758;28;20199;-74
2021/03/05 17:26:57;;;;;;;1.13;0.60;;;5.90;80.90;;;;;;5069415;28;20204;-75
2021/03/05 17:29:24;;;;;;;0.67;0.50;;;5.90;81.30;;;;;;5069931;28;20211;-75
2021/03/05 17:31:51;;;;;;;4.30;0.60;;;5.90;82.00;;;;;;5067843;28;20227;-75
2021/03/05 17:34:17;;;;;;;2.10;0.70;;;5.60;82.20;;;;;;5086439;28;20203;-74
2021/03/05 17:36:44;;;;;;;1.37;0.80;;;5.50;83.50;;;;;;5089572;28;20668;-74
2021/03/05 17:39:11;;;;;;;1.00;0.60;;;5.40;83.30;;;;;;5089854;28;20259;-74
2021/03/05 17:41:37;;;;;;;1.03;0.60;;;5.40;83.50;;;;;;5090023;28;20230;-74
2021/03/05 17:44:04;;;;;;;1.00;0.50;;;5.30;84.10;;;;;;5093367;28;20206;-73
2021/03/05 17:46:31;;;;;;;1.23;0.70;;;5.20;84.20;;;;;;5093649;28;20198;-74
2021/03/05 17:48:59;;;;;;;1.23;0.70;;;5.00;84.50;;;;;;5093410;28;20255;-76
2021/03/05 17:51:26;;;;;;;2.30;1.17;;;5.00;84.90;;;;;;5081504;28;20234;-74
2021/03/05 17:53:52;;;;;;;3.00;1.00;;;4.80;85.00;;;;;;5090802;28;20255;-73
2021/03/05 17:56:19;;;;;;;1.57;0.60;;;4.90;85.10;;;;;;5093060;28;20206;-74
2021/03/05 17:58:45;;;;;;;1.97;0.77;;;4.90;85.50;;;;;;5093088;28;20597;-74
2021/03/05 18:01:11;;;;;;;1.47;0.83;;;4.80;84.70;;;;;;5093379;28;20242;-73
2021/03/05 18:03:38;;;;;;;0.70;0.40;;;5.00;84.60;;;;;;5094551;28;20254;-74
2021/03/05 18:06:05;;;;;;;1.63;0.70;;;5.20;83.20;;;;;;5093039;28;20217;-74
2021/03/05 18:08:31;;;;;;;1.63;0.60;;;5.20;84.10;;;;;;5093403;28;20206;-75
2021/03/05 18:10:57;;;;;;;2.37;1.03;;;5.00;83.90;;;;;;5092971;28;20231;-74
2021/03/05 18:13:23;;;;;;;3.27;1.17;;;5.00;84.50;;;;;;5093290;28;20290;-73
2021/03/05 18:15:50;;;;;;;1.40;0.93;;;4.90;86.20;;;;;;5093015;28;20297;-73
2021/03/05 18:18:16;;;;;;;2.63;1.53;;;4.80;86.70;;;;;;5091099;28;20231;-72
2021/03/05 18:20:44;;;;;;;3.70;1.23;;;4.90;87.10;;;;;;5092440;27;20294;-71
2021/03/05 18:23:10;;;;;;;2.60;1.10;;;4.80;85.80;;;;;;5092284;28;20514;-74
2021/03/05 18:25:37;;;;;;;3.37;1.50;;;4.80;85.50;;;;;;5092735;28;20258;-73
2021/03/05 18:28:04;;;;;;;6.13;1.70;;;4.90;86.40;;;;;;5092044;28;20239;-72
2021/03/05 18:30:30;;;;;;;2.40;1.27;;;4.80;90.10;;;;;;5091465;28;20234;-72
2021/03/05 18:32:56;;;;;;;2.43;1.50;;;4.80;90.80;;;;;;5092449;28;20241;-72
2021/03/05 18:35:23;;;;;;;3.57;1.20;;;4.70;90.60;;;;;;5092419;28;20210;-72
2021/03/05 18:37:50;;;;;;;6.40;1.80;;;4.60;89.80;;;;;;5092338;28;20592;-72
2021/03/05 18:40:16;;;;;;;3.43;1.70;;;4.70;92.20;;;;;;5092265;28;20715;-72
2021/03/05 18:42:43;;;;;;;4.27;1.80;;;4.60;93.20;;;;;;5092412;28;20223;-72
2021/03/05 18:45:10;;;;;;;3.30;1.50;;;4.60;93.20;;;;;;5092717;28;20202;-72
2021/03/05 18:47:37;;;;;;;3.33;1.43;;;4.50;93.90;;;;;;5092586;28;20243;-72
2021/03/05 18:50:04;;;;;;;1.87;1.10;;;4.40;94.80;;;;;;5092266;28;20705;-72
2021/03/05 18:52:30;;;;;;;3.00;1.10;;;4.40;94.70;;;;;;5092087;28;20230;-72
2021/03/05 18:54:57;;;;;;;3.77;1.50;;;4.30;95.40;;;;;;5092605;28;20584;-72
2021/03/05 18:57:24;;;;;;;4.63;2.20;;;4.20;95.30;;;;;;5092558;28;20207;-74
2021/03/05 18:59:50;;;;;;;4.47;2.30;;;4.20;96.40;;;;;;5092237;28;20226;-73
2021/03/05 19:02:16;;;;;;;6.40;1.80;;;4.10;97.60;;;;;;5092009;28;20233;-73
2021/03/05 19:04:43;;;;;;;3.63;2.00;;;4.00;98.40;;;;;;5092188;28;20211;-73
2021/03/05 19:07:09;;;;;;;6.03;2.43;;;3.80;98.30;;;;;;5091649;28;20211;-74
2021/03/05 19:09:36;;;;;;;3.47;1.80;;;3.80;98.90;;;;;;5091599;28;20213;-72
2021/03/05 19:12:03;;;;;;;7.20;2.20;;;3.70;99.50;;;;;;5091193;28;20712;-74
2021/03/05 19:14:30;;;;;;;6.20;2.30;;;3.60;99.90;;;;;;5091823;28;20202;-74
2021/03/05 19:16:56;;;;;;;11.23;2.77;;;3.50;99.90;;;;;;5089659;28;20243;-74
2021/03/05 19:19:22;;;;;;;5.70;2.70;;;3.50;99.90;;;;;;5090104;28;20214;-73
2021/03/05 19:21:49;;;;;;;4.93;2.53;;;3.40;99.90;;;;;;5088623;27;20237;-74
2021/03/05 19:24:15;;;;;;;4.67;2.53;;;3.30;99.90;;;;;;5081385;27;20725;-71
2021/03/05 19:26:41;;;;;;;9.13;2.60;;;3.30;99.90;;;;;;5079687;28;20196;-74
2021/03/05 19:29:08;;;;;;;4.90;2.93;;;3.20;99.90;;;;;;5078152;28;20203;-74
2021/03/05 19:31:35;;;;;;;11.50;2.90;;;3.10;99.90;;;;;;5079083;27;20222;-76
2021/03/05 19:34:01;;;;;;;6.73;2.33;;;3.00;99.90;;;;;;5089920;28;20206;-75
2021/03/05 19:36:27;;;;;;;4.03;2.20;;;2.80;99.90;;;;;;5091137;28;20199;-74
2021/03/05 19:38:54;;;;;;;9.00;2.27;;;2.80;99.90;;;;;;5090967;28;20202;-74
2021/03/05 19:41:20;;;;;;;5.50;2.63;;;2.70;99.90;;;;;;5091374;28;20234;-75
2021/03/05 19:43:46;;;;;;;4.60;2.40;;;2.80;99.90;;;;;;5090392;28;20250;-74
2021/03/05 19:46:13;;;;;;;6.77;2.47;;;2.80;99.90;;;;;;5087083;28;20692;-75
2021/03/05 19:48:39;;;;;;;5.30;2.93;;;2.80;99.90;;;;;;5070321;28;20607;-74
2021/03/05 19:51:06;;;;;;;5.80;2.33;;;2.60;99.90;;;;;;5069503;28;20233;-74
2021/03/05 19:53:33;;;;;;;4.27;2.63;;;2.50;99.90;;;;;;5071205;28;20215;-74
2021/03/05 19:55:59;;;;;;;3.63;2.43;;;2.50;99.90;;;;;;5070982;27;20205;-74
2021/03/05 19:58:25;;;;;;;4.50;2.33;;;2.50;99.90;;;;;;5071119;28;20255;-74
2021/03/05 20:00:51;;;;;;;8.00;3.37;;;2.40;99.90;;;;;;5070942;28;20235;-74
2021/03/05 20:03:18;;;;;;;5.83;2.60;;;2.30;99.90;;;;;;5070006;28;20211;-74
2021/03/05 20:05:46;;;;;;;8.23;2.27;;;2.30;99.90;;;;;;5071051;27;20260;-74
2021/03/05 20:08:13;;;;;;;6.17;2.20;;;2.30;99.90;;;;;;5071280;28;20208;-73
2021/03/05 20:10:39;;;;;;;4.20;2.23;;;2.30;99.90;;;;;;5070790;27;20215;-74
2021/03/05 20:13:05;;;;;;;6.80;2.90;;;2.20;99.90;;;;;;5070843;28;20683;-73